Time;durP1;ratioP1;P1;durP2;ratioP2;P2;SDS_P1;SDS_P2;PMS_P1;PMS_P2;Temp;Humidity;BMP_temperature;BMP_pressure;BME280_temperature;BME280_humidity;BME280_pressure;Samples;Min_cycle;Max_cycle;Signal;HPM_P1;HPM_P2
2023/06/23 00:06:31;;;;;;;1999.90;999.90;;;18.50;99.90;;;;;;6727462;88;20275;-80
2023/06/23 00:16:32;;;;;;;1999.90;999.90;;;18.50;99.90;;;;;;6725727;88;20315;-81
2023/06/23 00:26:34;;;;;;;1999.90;999.90;;;18.40;99.90;;;;;;6722399;88;20561;-80
2023/06/23 00:36:34;;;;;;;1999.90;999.90;;;18.40;99.90;;;;;;6727534;88;20614;-81
2023/06/23 00:46:35;;;;;;;1999.90;999.90;;;18.20;99.90;;;;;;6722679;88;20185;-80
2023/06/23 00:56:36;;;;;;;1999.90;999.90;;;18.20;99.90;;;;;;6729186;88;20190;-80
2023/06/23 01:06:50;;;;;;;1999.90;999.90;;;18.10;99.90;;;;;;6737165;88;20531;-80
2023/06/23 01:16:57;;;;;;;1999.90;999.90;;;18.10;99.90;;;;;;6712916;88;20205;-80
2023/06/23 01:27:36;;;;;;;1999.90;999.90;;;17.90;99.90;;;;;;6741131;88;20201;-80
2023/06/23 01:37:41;;;;;;;1999.90;999.90;;;17.90;99.90;;;;;;6686902;88;20213;-80
2023/06/23 01:47:48;;;;;;;1999.90;999.90;;;17.90;99.90;;;;;;6745194;88;20208;-81
2023/06/23 01:57:51;;;;;;;1999.90;999.90;;;17.80;99.90;;;;;;6719489;88;20219;-80
2023/06/23 02:07:54;;;;;;;1999.90;999.90;;;17.60;99.90;;;;;;6745863;88;20169;-80
2023/06/23 02:17:55;;;;;;;1999.90;999.90;;;17.50;99.90;;;;;;6702527;88;20723;-80
2023/06/23 02:27:57;;;;;;;1999.90;999.90;;;17.40;99.90;;;;;;6745343;88;20274;-80
2023/06/23 02:38:04;;;;;;;1999.90;999.90;;;17.40;99.90;;;;;;6709753;88;20203;-80
2023/06/23 02:48:10;;;;;;;1999.90;999.90;;;17.40;99.90;;;;;;6739064;88;20157;-81
2023/06/23 02:58:14;;;;;;;1999.90;999.90;;;17.30;99.90;;;;;;6735733;88;20581;-80
2023/06/23 03:08:15;;;;;;;1999.90;999.90;;;17.30;99.90;;;;;;6726511;88;20193;-81
2023/06/23 03:18:24;;;;;;;1999.90;999.90;;;17.30;99.90;;;;;;6726480;88;20188;-81
2023/06/23 03:28:31;;;;;;;1999.90;999.90;;;17.20;99.90;;;;;;6702755;88;20223;-80
2023/06/23 03:38:37;;;;;;;1999.90;999.90;;;17.30;99.90;;;;;;6754762;88;20525;-79
2023/06/23 03:48:41;;;;;;;1999.90;999.90;;;17.30;99.90;;;;;;6708860;88;20188;-79
2023/06/23 03:58:43;;;;;;;1999.90;999.90;;;17.30;99.90;;;;;;6711223;88;20753;-78
2023/06/23 04:08:45;;;;;;;1999.90;999.90;;;17.30;99.90;;;;;;6724316;88;20725;-80
2023/06/23 04:18:48;;;;;;;1999.90;999.90;;;17.30;99.90;;;;;;6723617;88;20324;-79
2023/06/23 04:28:51;;;;;;;1999.90;999.90;;;17.30;99.90;;;;;;6723368;88;20222;-79
2023/06/23 04:38:58;;;;;;;1999.90;999.90;;;17.40;99.90;;;;;;6724826;88;20201;-79
2023/06/23 04:49:21;;;;;;;1999.90;999.90;;;17.60;99.90;;;;;;6730510;88;20744;-79
2023/06/23 04:59:23;;;;;;;1999.90;999.90;;;17.80;99.90;;;;;;6735118;88;20223;-79
2023/06/23 05:09:23;;;;;;;1999.90;999.90;;;17.70;99.90;;;;;;6724388;88;20209;-80
2023/06/23 05:19:28;;;;;;;1999.90;999.90;;;17.70;99.90;;;;;;6723438;88;20722;-79
2023/06/23 05:29:29;;;;;;;1999.90;999.90;;;17.70;99.90;;;;;;6734704;88;20230;-78
2023/06/23 05:39:31;;;;;;;1999.90;999.90;;;17.80;99.90;;;;;;6743460;88;20220;-80
2023/06/23 05:49:38;;;;;;;1999.90;999.90;;;17.90;99.90;;;;;;6741879;88;20569;-79
2023/06/23 05:59:45;;;;;;;1999.90;999.90;;;18.00;99.90;;;;;;6726232;88;20232;-76
2023/06/23 06:09:46;;;;;;;1999.90;999.90;;;18.20;99.90;;;;;;6725950;88;20585;-81
2023/06/23 06:19:48;;;;;;;1999.90;999.90;;;18.40;99.90;;;;;;6735017;88;20192;-81
2023/06/23 06:29:50;;;;;;;1999.90;999.90;;;18.40;99.90;;;;;;6759438;88;20177;-82
2023/06/23 06:39:52;;;;;;;1999.90;999.90;;;18.60;99.90;;;;;;6763019;88;20782;-80
2023/06/23 06:49:54;;;;;;;1999.90;999.90;;;18.50;99.90;;;;;;6753365;88;20351;-81
2023/06/23 06:59:55;;;;;;;1999.90;999.90;;;18.70;99.90;;;;;;6755225;88;20178;-79
2023/06/23 07:09:55;;;;;;;1999.90;999.90;;;18.80;99.90;;;;;;6754889;88;20200;-79
2023/06/23 07:19:56;;;;;;;1999.90;999.90;;;19.10;99.90;;;;;;6755180;88;20283;-79
2023/06/23 07:29:58;;;;;;;1999.90;999.90;;;19.30;99.90;;;;;;6754945;88;20534;-80
2023/06/23 07:39:58;;;;;;;1999.90;999.90;;;19.50;99.90;;;;;;6753201;88;20251;-80
2023/06/23 07:49:59;;;;;;;1999.90;999.90;;;20.20;99.90;;;;;;6749198;88;20214;-79
2023/06/23 07:59:59;;;;;;;1999.90;999.90;;;21.10;99.90;;;;;;6748786;88;20377;-78
2023/06/23 08:10:00;;;;;;;1999.90;999.90;;;21.20;99.90;;;;;;6748481;88;20354;-80
2023/06/23 08:20:00;;;;;;;1999.90;999.90;;;21.00;99.90;;;;;;6747098;88;20197;-81
2023/06/23 08:30:01;;;;;;;1999.90;999.90;;;21.80;99.90;;;;;;6745334;88;20207;-79
2023/06/23 08:40:02;;;;;;;1999.90;999.90;;;21.90;99.90;;;;;;6749415;88;20206;-79
2023/06/23 08:50:04;;;;;;;1999.90;999.90;;;22.50;99.90;;;;;;6749552;88;20188;-79
2023/06/23 09:00:06;;;;;;;1999.90;999.90;;;24.20;99.90;;;;;;6725917;88;20213;-79
2023/06/23 09:10:07;;;;;;;1999.90;999.90;;;24.70;99.90;;;;;;6728029;88;20200;-79
2023/06/23 09:20:09;;;;;;;1999.90;999.90;;;24.80;99.90;;;;;;6727801;88;20215;-78
2023/06/23 09:30:10;;;;;;;1999.90;999.90;;;25.60;99.90;;;;;;6728816;88;20770;-79
2023/06/23 09:40:11;;;;;;;1999.90;999.90;;;25.70;99.90;;;;;;6728592;88;20236;-80
2023/06/23 09:50:15;;;;;;;1999.90;999.90;;;24.90;99.90;;;;;;6724559;88;20210;-79
2023/06/23 10:00:17;;;;;;;1999.90;999.90;;;24.40;99.90;;;;;;6725449;88;20255;-79
2023/06/23 10:10:17;;;;;;;1999.90;999.90;;;24.80;99.90;;;;;;6749640;76;20201;-78
2023/06/23 10:20:18;;;;;;;1999.90;999.90;;;24.80;99.90;;;;;;6748490;88;20231;-77
2023/06/23 10:30:19;;;;;;;1999.90;999.90;;;24.40;99.90;;;;;;6737186;87;20209;-78
2023/06/23 10:40:24;;;;;;;1999.90;999.90;;;26.00;99.90;;;;;;6741226;87;20198;-77
2023/06/23 10:50:29;;;;;;;1999.90;999.90;;;27.20;99.90;;;;;;6733522;88;20640;-78
2023/06/23 11:00:31;;;;;;;1999.90;999.90;;;28.00;99.10;;;;;;6733281;88;20314;-77
2023/06/23 11:11:01;;;;;;;1999.90;999.90;;;27.90;98.90;;;;;;6744370;87;20209;-76
2023/06/23 11:21:15;;;;;;;1999.90;999.90;;;28.20;98.80;;;;;;6740499;87;20202;-77
2023/06/23 11:31:18;;;;;;;1999.90;999.90;;;28.50;98.40;;;;;;6740861;88;20177;-78
2023/06/23 11:41:29;;;;;;;1999.90;999.90;;;29.20;96.20;;;;;;6742323;87;20252;-77
2023/06/23 11:51:30;;;;;;;1999.90;999.90;;;29.30;95.90;;;;;;6741204;88;20180;-77
2023/06/23 12:01:32;;;;;;;1999.90;999.90;;;28.90;96.60;;;;;;6742983;87;20196;-77
2023/06/23 12:11:37;;;;;;;1999.90;999.90;;;29.30;95.20;;;;;;6706374;87;20200;-77
2023/06/23 12:21:39;;;;;;;1999.90;999.90;;;29.50;95.60;;;;;;6676105;88;20232;-76
2023/06/23 12:31:39;;;;;;;1999.90;999.90;;;29.30;93.60;;;;;;6674328;88;20622;-77
2023/06/23 12:41:40;;;;;;;1999.90;999.90;;;28.80;94.70;;;;;;6665213;88;20244;-76
2023/06/23 12:51:41;;;;;;;1999.90;999.90;;;29.60;92.00;;;;;;6662211;88;20270;-77
2023/06/23 13:01:41;;;;;;;1999.90;999.90;;;30.10;90.60;;;;;;6658170;88;20247;-76
2023/06/23 13:11:42;;;;;;;1999.90;999.90;;;30.30;90.40;;;;;;6699675;87;20201;-77
2023/06/23 13:21:45;;;;;;;1999.90;999.90;;;30.20;87.10;;;;;;6742951;87;20650;-77
2023/06/23 13:31:46;;;;;;;1999.90;999.90;;;30.50;87.50;;;;;;6743019;87;20230;-78
2023/06/23 13:41:46;;;;;;;1999.90;999.90;;;30.70;86.40;;;;;;6740597;87;20197;-79
2023/06/23 13:51:47;;;;;;;1999.90;999.90;;;30.80;86.20;;;;;;6742993;87;20181;-79
2023/06/23 14:01:50;;;;;;;1999.90;999.90;;;30.70;85.90;;;;;;6748040;88;20477;-78
2023/06/23 14:11:51;;;;;;;1999.90;999.90;;;30.60;84.90;;;;;;6750153;87;20181;-78
2023/06/23 14:21:51;;;;;;;1999.90;999.90;;;30.10;84.80;;;;;;6745856;88;20644;-77
2023/06/23 14:31:52;;;;;;;1999.90;999.90;;;30.40;85.20;;;;;;6746749;87;20268;-79
2023/06/23 14:41:53;;;;;;;1999.90;999.90;;;31.00;83.70;;;;;;6747904;87;20221;-79
2023/06/23 14:51:53;;;;;;;1999.90;999.90;;;29.70;84.90;;;;;;6750291;88;20874;-79
2023/06/23 15:01:55;;;;;;;1999.90;999.90;;;29.80;84.80;;;;;;6751886;87;20203;-79
2023/06/23 15:11:56;;;;;;;1999.90;999.90;;;30.50;83.00;;;;;;6724665;87;20695;-80
2023/06/23 15:21:56;;;;;;;1999.90;999.90;;;30.80;81.90;;;;;;6696653;87;20150;-78
2023/06/23 15:32:00;;;;;;;1999.90;999.90;;;30.20;81.30;;;;;;6679472;87;20206;-82
2023/06/23 15:42:00;;;;;;;1999.90;999.90;;;30.10;82.50;;;;;;6674752;89;20273;-77
2023/06/23 15:52:01;;;;;;;1999.90;999.90;;;30.50;80.40;;;;;;6664114;89;20637;-79
2023/06/23 16:02:01;;;;;;;1999.90;999.90;;;30.50;81.70;;;;;;6647438;89;20594;-78
2023/06/23 16:23:05;;;;;;;1999.90;999.90;;;30.00;80.80;;;;;;6694936;88;20673;-82
2023/06/23 16:33:05;;;;;;;1999.90;999.90;;;29.50;82.40;;;;;;6679177;89;20183;-78
2023/06/23 16:43:06;;;;;;;1999.90;999.90;;;28.90;84.10;;;;;;6685005;89;20507;-81
2023/06/23 16:53:09;;;;;;;1999.90;999.90;;;28.80;84.10;;;;;;6698949;88;20882;-83
2023/06/23 17:24:56;;;;;;;1999.90;999.90;;;27.40;87.30;;;;;;6772245;76;20187;-82
2023/06/23 17:45:00;;;;;;;1999.90;999.90;;;27.30;88.60;;;;;;6759901;88;20213;-79
2023/06/23 17:55:01;;;;;;;1999.90;999.90;;;26.90;89.40;;;;;;6762974;88;20300;-81
2023/06/23 18:05:01;;;;;;;1999.90;999.90;;;26.60;90.10;;;;;;6766740;88;20184;-81
2023/06/23 18:15:02;;;;;;;1999.90;999.90;;;26.70;89.70;;;;;;6762751;88;20654;-80
2023/06/23 18:25:03;;;;;;;1999.90;999.90;;;26.40;90.20;;;;;;6751672;88;20929;-81
2023/06/23 18:35:04;;;;;;;1999.90;999.90;;;26.20;89.60;;;;;;6746847;88;20238;-79
2023/06/23 18:45:06;;;;;;;1999.90;999.90;;;25.90;90.30;;;;;;6747285;88;20251;-79
2023/06/23 18:55:07;;;;;;;1999.90;999.90;;;25.60;90.80;;;;;;6741011;88;20691;-80
2023/06/23 19:05:09;;;;;;;1999.90;999.90;;;25.20;91.20;;;;;;6738350;88;20248;-81
2023/06/23 19:15:09;;;;;;;1999.90;999.90;;;24.80;92.20;;;;;;6737394;88;20198;-82
2023/06/23 19:25:10;;;;;;;1999.90;999.90;;;24.50;93.40;;;;;;6736809;88;20247;-81
2023/06/23 19:35:11;;;;;;;1999.90;999.90;;;24.20;94.50;;;;;;6738786;88;20210;-82
2023/06/23 19:45:11;;;;;;;1999.90;999.90;;;23.90;95.70;;;;;;6745081;88;20617;-81
2023/06/23 19:55:12;;;;;;;1999.90;999.90;;;23.70;97.10;;;;;;6755306;88;20185;-81
2023/06/23 20:05:13;;;;;;;1999.90;999.90;;;23.40;98.70;;;;;;6740782;88;20721;-83
2023/06/23 20:15:14;;;;;;;1999.90;999.90;;;23.00;99.80;;;;;;6753659;88;20198;-83
2023/06/23 20:25:15;;;;;;;1999.90;999.90;;;22.80;99.90;;;;;;6752596;88;20544;-84
2023/06/23 20:35:15;;;;;;;1999.90;999.90;;;22.50;99.90;;;;;;6741705;88;20653;-82
2023/06/23 20:45:16;;;;;;;1999.90;999.90;;;22.30;99.90;;;;;;6750203;88;20522;-80
2023/06/23 20:55:16;;;;;;;1999.90;999.90;;;22.20;99.90;;;;;;6744806;88;20172;-80
2023/06/23 21:05:17;;;;;;;1999.90;999.90;;;21.90;99.90;;;;;;6746136;88;20255;-79
2023/06/23 21:15:18;;;;;;;1999.90;999.90;;;21.90;99.90;;;;;;6744831;88;20181;-80
2023/06/23 21:25:19;;;;;;;1999.90;999.90;;;21.70;99.90;;;;;;6733479;88;20186;-80
2023/06/23 21:35:20;;;;;;;1999.90;999.90;;;21.50;99.90;;;;;;6735442;88;20197;-78
2023/06/23 21:45:23;;;;;;;1999.90;999.90;;;21.30;99.90;;;;;;6756519;88;20212;-78
2023/06/23 21:55:24;;;;;;;1999.90;999.90;;;21.20;99.90;;;;;;6733718;88;20556;-79
2023/06/23 22:05:25;;;;;;;1999.90;999.90;;;21.00;99.90;;;;;;6739046;88;20193;-80
2023/06/23 22:15:26;;;;;;;1999.90;999.90;;;20.80;99.90;;;;;;6740686;88;20633;-79
2023/06/23 22:25:26;;;;;;;1999.90;999.90;;;20.40;99.90;;;;;;6728474;88;20291;-79
2023/06/23 22:35:27;;;;;;;1999.90;999.90;;;20.20;99.90;;;;;;6727852;88;20919;-79
2023/06/23 22:45:27;;;;;;;1999.90;999.90;;;20.10;99.90;;;;;;6730044;88;20220;-80
2023/06/23 22:55:28;;;;;;;1999.90;999.90;;;19.80;99.90;;;;;;6747614;77;20208;-78
2023/06/23 23:05:28;;;;;;;1999.90;999.90;;;19.70;99.90;;;;;;6743624;88;20210;-79
2023/06/23 23:15:29;;;;;;;1999.90;999.90;;;19.50;99.90;;;;;;6750967;87;20653;-77
2023/06/23 23:25:31;;;;;;;1999.90;999.90;;;19.40;99.90;;;;;;6757883;87;20275;-78
2023/06/23 23:35:31;;;;;;;1999.90;999.90;;;19.30;99.90;;;;;;6749439;87;20214;-78
2023/06/23 23:45:32;;;;;;;1999.90;999.90;;;19.10;99.90;;;;;;6750906;87;20192;-78
2023/06/23 23:55:32;;;;;;;1999.90;999.90;;;19.00;99.90;;;;;;6750913;87;20445;-78
